Grand Junction Regional Airport
KGJT : now visible

Airfield :











YOU CAN JOIN US ON...

 
LOGIN :

Register | Disclaimer

   EN    FR    IT 

 









Legend :    VFR   Marginal VFR   IFR   Intensive IFR   Very Intensive IFR
Visi :
Ceiling :
>= 8 km
>= 3000ft
5 to 8 km
1000 to 3000 ft
1500m to 5 km
500 to 1000 ft
800 to 1500m
200 to 500 ft
< 800m
< 200 ft
Symbols :   Thunderstorms  Fog  Heavy snow  Heavy precipitations  Wind > 20 kt






- Airport Elevation : 4858 ft
- IATA code : GJT


KGJT - Grand Junction Regional

CURRENT METAR :
  • 260853Z AUTO 10010KT 10SM CLR M02/M09 A2998 RMK AO2 SLP146 T10221089 58005

EXPIRED METARs :
  • 260753Z AUTO 10009KT 10SM CLR M01/M08 A2999 RMK AO2 SLP151 T10111078
  • 260653Z AUTO 10008KT 10SM CLR 00/M07 A2999 RMK AO2 SLP153 T00001072 401001039

TAF KGJT
Valid from the 26 at 06:00 until the 27 at 06:00 UTC


260526Z 2606/2706 11006KT P6SM FEW120
FM262000 32007KT P6SM FEW070 BKN120
FM262300 01006KT P6SM SCT070 BKN090
KZDV FIR / North America



MET'MAP, your aeronautical weather chart ! - Copyright ORBIFLY December 2007 - Disclaimer

ORBIFLY MET'MAP TEAM :

Programming & Development : Alexandra Zaïnal
Concept & original design : Baudouin d'Aumeries
Assistance for programming : Marc-Olivier Méhu
Technical & hardware support : Manuel Goepfert

Contact : metmap@orbifly.com




SOURCES & CREDITS :

   NOAA       Earth
Advisory